sensor_id;sensor_type;location;lat;lon;timestamp;P1;durP1;ratioP1;P2;durP2;ratioP2
76379;SDS011;65201;21.060;105.826;2023-04-07T11:03:02;47.47;;;20.30;;
76379;SDS011;65201;21.060;105.826;2023-04-07T11:05:35;41.42;;;19.73;;
76379;SDS011;65201;21.060;105.826;2023-04-07T11:08:03;35.38;;;19.73;;
76379;SDS011;65201;21.060;105.826;2023-04-07T11:10:31;33.05;;;19.02;;
76379;SDS011;65201;21.060;105.826;2023-04-07T11:13:01;35.77;;;19.57;;
76379;SDS011;65201;21.060;105.826;2023-04-07T11:15:27;33.45;;;19.77;;
76379;SDS011;65201;21.060;105.826;2023-04-07T11:18:07;37.88;;;20.02;;
76379;SDS011;65201;21.060;105.826;2023-04-07T11:21:07;39.42;;;19.75;;
76379;SDS011;65201;21.060;105.826;2023-04-07T11:23:26;34.20;;;20.17;;
76379;SDS011;65201;21.060;105.826;2023-04-07T11:25:58;40.27;;;20.23;;
76379;SDS011;65201;21.060;105.826;2023-04-07T11:28:27;35.20;;;19.33;;
76379;SDS011;65201;21.060;105.826;2023-04-07T11:30:54;34.60;;;19.40;;
76379;SDS011;65201;21.060;105.826;2023-04-07T11:33:21;33.95;;;19.10;;
76379;SDS011;65201;21.060;105.826;2023-04-07T11:38:14;37.10;;;19.33;;
76379;SDS011;65201;21.060;105.826;2023-04-07T11:40:40;34.50;;;18.90;;
76379;SDS011;65201;21.060;105.826;2023-04-07T11:43:23;41.75;;;18.77;;
76379;SDS011;65201;21.060;105.826;2023-04-07T11:48:34;29.48;;;18.30;;
76379;SDS011;65201;21.060;105.826;2023-04-07T11:51:01;33.27;;;18.80;;
76379;SDS011;65201;21.060;105.826;2023-04-07T11:53:28;33.75;;;18.05;;
76379;SDS011;65201;21.060;105.826;2023-04-07T11:56:15;35.92;;;18.23;;
76379;SDS011;65201;21.060;105.826;2023-04-07T11:59:01;30.00;;;18.50;;
76379;SDS011;65201;21.060;105.826;2023-04-07T12:01:37;35.55;;;17.85;;
76379;SDS011;65201;21.060;105.826;2023-04-07T12:04:04;31.97;;;18.13;;
76379;SDS011;65201;21.060;105.826;2023-04-07T12:09:06;32.65;;;19.00;;
76379;SDS011;65201;21.060;105.826;2023-04-07T12:11:32;33.78;;;18.60;;
76379;SDS011;65201;21.060;105.826;2023-04-07T12:13:59;31.67;;;17.52;;
76379;SDS011;65201;21.060;105.826;2023-04-07T12:16:25;32.77;;;18.17;;
76379;SDS011;65201;21.060;105.826;2023-04-07T12:18:52;32.83;;;18.30;;
76379;SDS011;65201;21.060;105.826;2023-04-07T12:21:18;30.40;;;19.08;;
76379;SDS011;65201;21.060;105.826;2023-04-07T12:23:45;30.25;;;18.48;;
76379;SDS011;65201;21.060;105.826;2023-04-07T12:26:12;31.38;;;18.95;;
76379;SDS011;65201;21.060;105.826;2023-04-07T12:28:38;32.37;;;18.70;;
76379;SDS011;65201;21.060;105.826;2023-04-07T12:31:07;39.90;;;19.33;;
76379;SDS011;65201;21.060;105.826;2023-04-07T12:33:33;31.13;;;20.52;;
76379;SDS011;65201;21.060;105.826;2023-04-07T12:35:59;33.83;;;19.58;;
76379;SDS011;65201;21.060;105.826;2023-04-07T12:38:25;33.63;;;19.48;;
76379;SDS011;65201;21.060;105.826;2023-04-07T12:40:53;33.47;;;19.53;;
76379;SDS011;65201;21.060;105.826;2023-04-07T12:43:19;34.47;;;20.15;;
76379;SDS011;65201;21.060;105.826;2023-04-07T12:45:45;33.05;;;19.55;;
76379;SDS011;65201;21.060;105.826;2023-04-07T12:48:14;35.50;;;19.60;;
76379;SDS011;65201;21.060;105.826;2023-04-07T12:50:41;34.70;;;20.40;;
76379;SDS011;65201;21.060;105.826;2023-04-07T12:53:10;37.27;;;20.70;;
76379;SDS011;65201;21.060;105.826;2023-04-07T12:55:36;35.15;;;20.70;;
76379;SDS011;65201;21.060;105.826;2023-04-07T12:58:02;36.45;;;21.23;;
76379;SDS011;65201;21.060;105.826;2023-04-07T13:03:09;40.67;;;24.08;;
76379;SDS011;65201;21.060;105.826;2023-04-07T13:05:35;40.93;;;22.83;;
76379;SDS011;65201;21.060;105.826;2023-04-07T13:08:01;39.53;;;23.15;;
76379;SDS011;65201;21.060;105.826;2023-04-07T13:10:27;38.75;;;23.17;;
76379;SDS011;65201;21.060;105.826;2023-04-07T13:12:54;39.70;;;23.75;;
76379;SDS011;65201;21.060;105.826;2023-04-07T13:15:20;45.65;;;23.63;;
76379;SDS011;65201;21.060;105.826;2023-04-07T13:17:46;38.07;;;23.37;;
76379;SDS011;65201;21.060;105.826;2023-04-07T13:20:12;40.63;;;23.00;;
76379;SDS011;65201;21.060;105.826;2023-04-07T13:22:38;39.20;;;23.90;;
76379;SDS011;65201;21.060;105.826;2023-04-07T13:25:04;36.22;;;22.83;;
76379;SDS011;65201;21.060;105.826;2023-04-07T13:27:31;39.83;;;23.73;;
76379;SDS011;65201;21.060;105.826;2023-04-07T13:29:57;41.47;;;23.27;;
76379;SDS011;65201;21.060;105.826;2023-04-07T13:32:23;41.28;;;22.08;;
76379;SDS011;65201;21.060;105.826;2023-04-07T13:34:51;40.42;;;22.42;;
76379;SDS011;65201;21.060;105.826;2023-04-07T13:37:17;42.42;;;23.25;;
76379;SDS011;65201;21.060;105.826;2023-04-07T13:39:44;46.97;;;24.85;;
76379;SDS011;65201;21.060;105.826;2023-04-07T13:42:10;40.83;;;24.83;;
76379;SDS011;65201;21.060;105.826;2023-04-07T13:44:36;44.00;;;24.70;;
76379;SDS011;65201;21.060;105.826;2023-04-07T13:47:04;43.38;;;23.60;;
76379;SDS011;65201;21.060;105.826;2023-04-07T13:49:30;46.05;;;25.52;;
76379;SDS011;65201;21.060;105.826;2023-04-07T13:51:56;46.20;;;25.77;;
76379;SDS011;65201;21.060;105.826;2023-04-07T13:54:22;42.87;;;26.37;;
76379;SDS011;65201;21.060;105.826;2023-04-07T13:56:48;45.03;;;27.60;;
76379;SDS011;65201;21.060;105.826;2023-04-07T13:59:15;53.53;;;29.08;;
76379;SDS011;65201;21.060;105.826;2023-04-07T14:01:41;49.78;;;28.92;;
76379;SDS011;65201;21.060;105.826;2023-04-07T14:04:07;57.83;;;30.23;;
76379;SDS011;65201;21.060;105.826;2023-04-07T14:06:33;50.73;;;30.13;;
76379;SDS011;65201;21.060;105.826;2023-04-07T14:09:01;52.88;;;30.48;;
76379;SDS011;65201;21.060;105.826;2023-04-07T14:11:28;57.08;;;29.83;;
76379;SDS011;65201;21.060;105.826;2023-04-07T14:13:55;60.30;;;30.40;;
76379;SDS011;65201;21.060;105.826;2023-04-07T14:16:24;57.10;;;29.75;;
76379;SDS011;65201;21.060;105.826;2023-04-07T14:18:50;57.93;;;29.67;;
76379;SDS011;65201;21.060;105.826;2023-04-07T14:21:17;62.28;;;30.05;;
76379;SDS011;65201;21.060;105.826;2023-04-07T14:23:43;53.75;;;30.90;;
76379;SDS011;65201;21.060;105.826;2023-04-07T14:26:10;51.92;;;29.17;;
76379;SDS011;65201;21.060;105.826;2023-04-07T14:28:36;58.40;;;31.38;;
76379;SDS011;65201;21.060;105.826;2023-04-07T14:31:02;48.20;;;30.20;;
76379;SDS011;65201;21.060;105.826;2023-04-07T14:33:28;54.53;;;30.52;;
76379;SDS011;65201;21.060;105.826;2023-04-07T14:35:55;56.10;;;30.73;;
76379;SDS011;65201;21.060;105.826;2023-04-07T14:38:22;54.80;;;30.65;;
76379;SDS011;65201;21.060;105.826;2023-04-07T14:40:48;57.42;;;31.02;;
76379;SDS011;65201;21.060;105.826;2023-04-07T14:43:15;52.90;;;29.80;;
76379;SDS011;65201;21.060;105.826;2023-04-07T14:45:41;52.28;;;30.73;;
76379;SDS011;65201;21.060;105.826;2023-04-07T14:48:07;50.03;;;29.77;;
76379;SDS011;65201;21.060;105.826;2023-04-07T14:50:33;53.17;;;30.02;;
76379;SDS011;65201;21.060;105.826;2023-04-07T14:52:59;49.60;;;30.83;;
76379;SDS011;65201;21.060;105.826;2023-04-07T14:55:26;49.17;;;29.10;;
76379;SDS011;65201;21.060;105.826;2023-04-07T14:57:52;52.33;;;30.23;;
76379;SDS011;65201;21.060;105.826;2023-04-07T15:00:18;49.90;;;29.70;;
76379;SDS011;65201;21.060;105.826;2023-04-07T15:02:44;47.65;;;30.08;;
76379;SDS011;65201;21.060;105.826;2023-04-07T15:05:10;54.15;;;30.63;;
76379;SDS011;65201;21.060;105.826;2023-04-07T15:07:37;51.90;;;30.83;;
76379;SDS011;65201;21.060;105.826;2023-04-07T15:10:03;51.90;;;29.52;;
76379;SDS011;65201;21.060;105.826;2023-04-07T15:12:30;51.47;;;29.70;;
76379;SDS011;65201;21.060;105.826;2023-04-07T15:14:57;51.60;;;29.60;;
76379;SDS011;65201;21.060;105.826;2023-04-07T15:17:24;48.75;;;29.48;;
76379;SDS011;65201;21.060;105.826;2023-04-07T15:19:50;55.63;;;31.40;;
76379;SDS011;65201;21.060;105.826;2023-04-07T15:22:16;52.17;;;30.17;;
76379;SDS011;65201;21.060;105.826;2023-04-07T15:24:42;52.95;;;30.35;;
76379;SDS011;65201;21.060;105.826;2023-04-07T15:27:09;53.65;;;31.20;;
76379;SDS011;65201;21.060;105.826;2023-04-07T15:29:35;53.53;;;31.80;;
76379;SDS011;65201;21.060;105.826;2023-04-07T15:32:03;54.10;;;29.33;;
76379;SDS011;65201;21.060;105.826;2023-04-07T15:34:29;54.13;;;30.67;;
76379;SDS011;65201;21.060;105.826;2023-04-07T15:36:55;50.90;;;29.55;;
76379;SDS011;65201;21.060;105.826;2023-04-07T15:39:25;50.40;;;29.45;;
76379;SDS011;65201;21.060;105.826;2023-04-07T15:41:51;51.97;;;30.42;;
76379;SDS011;65201;21.060;105.826;2023-04-07T15:44:17;48.47;;;29.87;;
76379;SDS011;65201;21.060;105.826;2023-04-07T15:46:43;49.65;;;30.15;;
76379;SDS011;65201;21.060;105.826;2023-04-07T15:49:10;50.28;;;29.20;;
76379;SDS011;65201;21.060;105.826;2023-04-07T15:51:36;52.25;;;28.38;;
76379;SDS011;65201;21.060;105.826;2023-04-07T15:54:02;48.50;;;29.52;;
76379;SDS011;65201;21.060;105.826;2023-04-07T15:56:28;47.03;;;29.57;;
76379;SDS011;65201;21.060;105.826;2023-04-07T15:58:55;48.72;;;29.83;;
76379;SDS011;65201;21.060;105.826;2023-04-07T16:01:21;47.70;;;29.63;;
76379;SDS011;65201;21.060;105.826;2023-04-07T16:03:47;45.80;;;28.75;;
76379;SDS011;65201;21.060;105.826;2023-04-07T16:06:13;46.65;;;29.02;;
76379;SDS011;65201;21.060;105.826;2023-04-07T16:08:39;52.33;;;27.90;;
76379;SDS011;65201;21.060;105.826;2023-04-07T16:11:06;43.90;;;27.40;;
76379;SDS011;65201;21.060;105.826;2023-04-07T16:13:32;44.25;;;28.83;;
76379;SDS011;65201;21.060;105.826;2023-04-07T16:15:58;51.40;;;28.83;;
76379;SDS011;65201;21.060;105.826;2023-04-07T16:18:24;48.92;;;29.55;;
76379;SDS011;65201;21.060;105.826;2023-04-07T16:20:54;48.47;;;28.80;;
76379;SDS011;65201;21.060;105.826;2023-04-07T16:23:20;50.72;;;29.15;;
76379;SDS011;65201;21.060;105.826;2023-04-07T16:25:46;48.50;;;29.60;;
76379;SDS011;65201;21.060;105.826;2023-04-07T16:28:12;46.65;;;29.00;;
76379;SDS011;65201;21.060;105.826;2023-04-07T16:30:38;46.85;;;28.60;;
76379;SDS011;65201;21.060;105.826;2023-04-07T16:33:05;41.50;;;27.73;;
76379;SDS011;65201;21.060;105.826;2023-04-07T16:35:31;44.38;;;27.75;;
76379;SDS011;65201;21.060;105.826;2023-04-07T16:37:57;46.85;;;28.80;;
76379;SDS011;65201;21.060;105.826;2023-04-07T16:40:28;45.22;;;28.23;;
76379;SDS011;65201;21.060;105.826;2023-04-07T16:43:01;43.88;;;27.98;;
76379;SDS011;65201;21.060;105.826;2023-04-07T16:45:27;44.27;;;29.17;;
76379;SDS011;65201;21.060;105.826;2023-04-07T16:47:54;45.60;;;28.80;;
76379;SDS011;65201;21.060;105.826;2023-04-07T16:50:20;48.80;;;29.42;;
76379;SDS011;65201;21.060;105.826;2023-04-07T16:52:46;45.10;;;28.95;;
76379;SDS011;65201;21.060;105.826;2023-04-07T16:55:12;44.80;;;28.75;;
76379;SDS011;65201;21.060;105.826;2023-04-07T16:57:39;44.30;;;29.03;;
76379;SDS011;65201;21.060;105.826;2023-04-07T17:00:05;45.70;;;29.48;;
76379;SDS011;65201;21.060;105.826;2023-04-07T17:02:32;48.03;;;30.75;;
76379;SDS011;65201;21.060;105.826;2023-04-07T17:04:58;46.17;;;29.95;;
76379;SDS011;65201;21.060;105.826;2023-04-07T17:07:25;48.88;;;28.88;;
76379;SDS011;65201;21.060;105.826;2023-04-07T17:09:51;50.00;;;29.93;;
76379;SDS011;65201;21.060;105.826;2023-04-07T17:12:18;44.33;;;28.38;;
76379;SDS011;65201;21.060;105.826;2023-04-07T17:14:44;46.55;;;30.25;;
76379;SDS011;65201;21.060;105.826;2023-04-07T17:17:10;44.80;;;29.00;;
76379;SDS011;65201;21.060;105.826;2023-04-07T17:19:36;45.15;;;28.55;;
76379;SDS011;65201;21.060;105.826;2023-04-07T17:22:03;44.97;;;28.13;;
76379;SDS011;65201;21.060;105.826;2023-04-07T17:24:29;45.95;;;30.30;;
76379;SDS011;65201;21.060;105.826;2023-04-07T17:26:55;47.20;;;29.58;;
76379;SDS011;65201;21.060;105.826;2023-04-07T17:29:21;47.15;;;29.60;;
76379;SDS011;65201;21.060;105.826;2023-04-07T17:31:53;47.35;;;30.05;;
76379;SDS011;65201;21.060;105.826;2023-04-07T17:34:20;46.20;;;29.27;;
76379;SDS011;65201;21.060;105.826;2023-04-07T17:36:48;46.35;;;29.33;;
76379;SDS011;65201;21.060;105.826;2023-04-07T17:39:14;44.65;;;28.80;;
76379;SDS011;65201;21.060;105.826;2023-04-07T17:41:40;49.45;;;29.90;;
76379;SDS011;65201;21.060;105.826;2023-04-07T17:44:07;45.03;;;29.77;;
76379;SDS011;65201;21.060;105.826;2023-04-07T17:46:33;46.80;;;30.10;;
76379;SDS011;65201;21.060;105.826;2023-04-07T17:49:00;44.85;;;29.77;;
76379;SDS011;65201;21.060;105.826;2023-04-07T17:51:26;44.25;;;29.17;;
76379;SDS011;65201;21.060;105.826;2023-04-07T17:53:53;42.90;;;27.88;;
76379;SDS011;65201;21.060;105.826;2023-04-07T17:56:21;46.97;;;30.38;;
76379;SDS011;65201;21.060;105.826;2023-04-07T17:58:48;43.40;;;28.73;;
76379;SDS011;65201;21.060;105.826;2023-04-07T18:01:14;43.13;;;27.98;;
76379;SDS011;65201;21.060;105.826;2023-04-07T18:03:41;45.45;;;28.65;;
76379;SDS011;65201;21.060;105.826;2023-04-07T18:06:08;42.83;;;27.77;;
76379;SDS011;65201;21.060;105.826;2023-04-07T18:08:34;43.33;;;29.60;;
76379;SDS011;65201;21.060;105.826;2023-04-07T18:11:01;43.17;;;28.07;;
76379;SDS011;65201;21.060;105.826;2023-04-07T18:13:27;43.90;;;28.05;;
76379;SDS011;65201;21.060;105.826;2023-04-07T18:15:53;44.50;;;27.40;;
76379;SDS011;65201;21.060;105.826;2023-04-07T18:18:20;41.83;;;26.70;;
76379;SDS011;65201;21.060;105.826;2023-04-07T18:20:46;42.38;;;27.70;;
76379;SDS011;65201;21.060;105.826;2023-04-07T18:23:12;37.80;;;26.60;;
76379;SDS011;65201;21.060;105.826;2023-04-07T18:25:38;42.10;;;26.80;;
76379;SDS011;65201;21.060;105.826;2023-04-07T18:28:04;41.67;;;27.13;;
76379;SDS011;65201;21.060;105.826;2023-04-07T18:30:30;45.88;;;27.20;;
76379;SDS011;65201;21.060;105.826;2023-04-07T18:32:57;41.50;;;26.70;;
76379;SDS011;65201;21.060;105.826;2023-04-07T18:35:23;40.27;;;26.87;;
76379;SDS011;65201;21.060;105.826;2023-04-07T18:37:50;39.05;;;26.70;;
76379;SDS011;65201;21.060;105.826;2023-04-07T18:40:16;41.88;;;26.45;;
76379;SDS011;65201;21.060;105.826;2023-04-07T18:42:42;41.35;;;27.23;;
76379;SDS011;65201;21.060;105.826;2023-04-07T18:45:08;40.15;;;26.88;;
76379;SDS011;65201;21.060;105.826;2023-04-07T18:47:36;42.20;;;26.67;;
76379;SDS011;65201;21.060;105.826;2023-04-07T18:50:03;40.92;;;26.90;;
76379;SDS011;65201;21.060;105.826;2023-04-07T18:52:29;39.03;;;26.08;;
76379;SDS011;65201;21.060;105.826;2023-04-07T18:54:56;37.22;;;26.27;;
76379;SDS011;65201;21.060;105.826;2023-04-07T18:57:22;35.92;;;26.23;;
76379;SDS011;65201;21.060;105.826;2023-04-07T18:59:48;35.77;;;24.93;;
76379;SDS011;65201;21.060;105.826;2023-04-07T19:02:14;39.70;;;27.00;;
76379;SDS011;65201;21.060;105.826;2023-04-07T19:04:40;36.13;;;25.05;;
76379;SDS011;65201;21.060;105.826;2023-04-07T19:07:06;35.55;;;24.50;;
76379;SDS011;65201;21.060;105.826;2023-04-07T19:09:32;39.25;;;25.63;;
76379;SDS011;65201;21.060;105.826;2023-04-07T19:11:58;37.33;;;25.02;;
76379;SDS011;65201;21.060;105.826;2023-04-07T19:14:24;35.45;;;25.35;;
76379;SDS011;65201;21.060;105.826;2023-04-07T19:16:51;39.28;;;25.17;;
76379;SDS011;65201;21.060;105.826;2023-04-07T19:19:17;39.90;;;27.17;;
76379;SDS011;65201;21.060;105.826;2023-04-07T19:21:43;38.00;;;24.53;;
76379;SDS011;65201;21.060;105.826;2023-04-07T19:24:08;38.33;;;24.77;;
76379;SDS011;65201;21.060;105.826;2023-04-07T19:26:34;40.78;;;26.25;;
76379;SDS011;65201;21.060;105.826;2023-04-07T19:29:01;41.30;;;26.08;;
76379;SDS011;65201;21.060;105.826;2023-04-07T19:31:29;38.53;;;25.20;;
76379;SDS011;65201;21.060;105.826;2023-04-07T19:33:56;35.85;;;25.02;;
76379;SDS011;65201;21.060;105.826;2023-04-07T19:36:22;36.05;;;25.08;;
76379;SDS011;65201;21.060;105.826;2023-04-07T19:38:49;38.20;;;25.10;;
76379;SDS011;65201;21.060;105.826;2023-04-07T19:41:15;36.47;;;24.67;;
76379;SDS011;65201;21.060;105.826;2023-04-07T19:43:41;36.50;;;24.77;;
76379;SDS011;65201;21.060;105.826;2023-04-07T19:46:07;36.08;;;24.85;;
76379;SDS011;65201;21.060;105.826;2023-04-07T19:48:33;37.72;;;25.40;;
76379;SDS011;65201;21.060;105.826;2023-04-07T19:50:59;35.20;;;24.98;;
76379;SDS011;65201;21.060;105.826;2023-04-07T19:53:25;38.33;;;24.80;;
76379;SDS011;65201;21.060;105.826;2023-04-07T19:55:53;38.73;;;24.70;;
76379;SDS011;65201;21.060;105.826;2023-04-07T19:58:19;37.35;;;23.88;;
76379;SDS011;65201;21.060;105.826;2023-04-07T20:00:47;33.90;;;23.48;;
76379;SDS011;65201;21.060;105.826;2023-04-07T20:03:15;33.72;;;23.55;;
76379;SDS011;65201;21.060;105.826;2023-04-07T20:05:41;37.92;;;23.52;;
76379;SDS011;65201;21.060;105.826;2023-04-07T20:08:07;34.90;;;24.13;;
76379;SDS011;65201;21.060;105.826;2023-04-07T20:10:34;33.28;;;23.70;;
76379;SDS011;65201;21.060;105.826;2023-04-07T20:13:00;35.03;;;23.65;;
76379;SDS011;65201;21.060;105.826;2023-04-07T20:15:26;32.42;;;23.55;;
76379;SDS011;65201;21.060;105.826;2023-04-07T20:17:52;34.35;;;23.70;;
76379;SDS011;65201;21.060;105.826;2023-04-07T20:20:18;32.37;;;22.47;;
76379;SDS011;65201;21.060;105.826;2023-04-07T20:22:46;31.73;;;21.85;;
76379;SDS011;65201;21.060;105.826;2023-04-07T20:25:12;31.05;;;23.02;;
76379;SDS011;65201;21.060;105.826;2023-04-07T20:27:38;33.03;;;24.00;;
76379;SDS011;65201;21.060;105.826;2023-04-07T20:30:04;33.63;;;22.30;;
76379;SDS011;65201;21.060;105.826;2023-04-07T20:32:30;32.10;;;23.13;;
76379;SDS011;65201;21.060;105.826;2023-04-07T20:34:56;31.77;;;22.15;;
76379;SDS011;65201;21.060;105.826;2023-04-07T20:37:22;28.27;;;21.17;;
76379;SDS011;65201;21.060;105.826;2023-04-07T20:39:50;30.90;;;22.77;;
76379;SDS011;65201;21.060;105.826;2023-04-07T20:42:16;31.07;;;21.40;;
76379;SDS011;65201;21.060;105.826;2023-04-07T20:44:42;28.08;;;20.90;;
76379;SDS011;65201;21.060;105.826;2023-04-07T20:47:08;32.13;;;22.13;;
76379;SDS011;65201;21.060;105.826;2023-04-07T20:49:35;32.88;;;22.17;;
76379;SDS011;65201;21.060;105.826;2023-04-07T20:52:01;28.93;;;21.40;;
76379;SDS011;65201;21.060;105.826;2023-04-07T20:54:27;28.73;;;21.48;;
76379;SDS011;65201;21.060;105.826;2023-04-07T20:56:54;28.73;;;21.52;;
76379;SDS011;65201;21.060;105.826;2023-04-07T20:59:20;27.75;;;21.17;;
76379;SDS011;65201;21.060;105.826;2023-04-07T21:01:46;32.65;;;21.90;;
76379;SDS011;65201;21.060;105.826;2023-04-07T21:04:12;29.90;;;21.03;;
76379;SDS011;65201;21.060;105.826;2023-04-07T21:06:38;29.52;;;21.25;;
76379;SDS011;65201;21.060;105.826;2023-04-07T21:09:06;29.27;;;20.60;;
76379;SDS011;65201;21.060;105.826;2023-04-07T21:11:33;30.27;;;20.98;;
76379;SDS011;65201;21.060;105.826;2023-04-07T21:13:59;30.00;;;20.75;;
76379;SDS011;65201;21.060;105.826;2023-04-07T21:16:26;26.93;;;19.90;;
76379;SDS011;65201;21.060;105.826;2023-04-07T21:18:52;30.70;;;20.65;;
76379;SDS011;65201;21.060;105.826;2023-04-07T21:21:18;28.10;;;20.75;;
76379;SDS011;65201;21.060;105.826;2023-04-07T21:23:44;29.15;;;20.63;;
76379;SDS011;65201;21.060;105.826;2023-04-07T21:26:10;35.72;;;22.02;;
76379;SDS011;65201;21.060;105.826;2023-04-07T21:28:36;33.07;;;21.03;;
76379;SDS011;65201;21.060;105.826;2023-04-07T21:31:04;31.08;;;21.30;;
76379;SDS011;65201;21.060;105.826;2023-04-07T21:33:30;30.45;;;21.17;;
76379;SDS011;65201;21.060;105.826;2023-04-07T21:35:56;29.27;;;21.58;;
76379;SDS011;65201;21.060;105.826;2023-04-07T21:38:22;28.40;;;21.67;;
76379;SDS011;65201;21.060;105.826;2023-04-07T21:40:48;34.40;;;23.17;;
76379;SDS011;65201;21.060;105.826;2023-04-07T21:46:17;30.55;;;21.20;;
76379;SDS011;65201;21.060;105.826;2023-04-07T21:48:43;33.30;;;21.90;;
76379;SDS011;65201;21.060;105.826;2023-04-07T21:51:09;32.72;;;23.10;;
76379;SDS011;65201;21.060;105.826;2023-04-07T21:53:36;35.53;;;22.93;;
76379;SDS011;65201;21.060;105.826;2023-04-07T21:56:02;33.67;;;24.00;;
76379;SDS011;65201;21.060;105.826;2023-04-07T21:58:28;30.95;;;22.35;;
76379;SDS011;65201;21.060;105.826;2023-04-07T22:00:54;30.02;;;21.55;;
76379;SDS011;65201;21.060;105.826;2023-04-07T22:03:21;30.52;;;23.20;;
76379;SDS011;65201;21.060;105.826;2023-04-07T22:05:47;34.50;;;24.10;;
76379;SDS011;65201;21.060;105.826;2023-04-07T22:08:13;30.70;;;23.08;;
76379;SDS011;65201;21.060;105.826;2023-04-07T22:10:40;34.13;;;24.27;;
76379;SDS011;65201;21.060;105.826;2023-04-07T22:13:06;32.50;;;23.67;;
76379;SDS011;65201;21.060;105.826;2023-04-07T22:15:32;33.63;;;23.05;;
76379;SDS011;65201;21.060;105.826;2023-04-07T22:17:58;34.00;;;24.00;;
76379;SDS011;65201;21.060;105.826;2023-04-07T22:20:24;30.50;;;22.63;;
76379;SDS011;65201;21.060;105.826;2023-04-07T22:22:51;33.42;;;23.90;;
76379;SDS011;65201;21.060;105.826;2023-04-07T22:25:21;33.90;;;23.42;;
76379;SDS011;65201;21.060;105.826;2023-04-07T22:27:48;32.72;;;23.33;;
76379;SDS011;65201;21.060;105.826;2023-04-07T22:30:17;32.70;;;23.23;;
76379;SDS011;65201;21.060;105.826;2023-04-07T22:32:43;35.80;;;23.60;;
76379;SDS011;65201;21.060;105.826;2023-04-07T22:35:09;35.88;;;24.30;;
76379;SDS011;65201;21.060;105.826;2023-04-07T22:37:35;34.65;;;23.70;;
76379;SDS011;65201;21.060;105.826;2023-04-07T22:40:01;33.40;;;23.77;;
76379;SDS011;65201;21.060;105.826;2023-04-07T22:42:28;33.77;;;23.60;;
76379;SDS011;65201;21.060;105.826;2023-04-07T22:44:54;34.55;;;23.75;;
76379;SDS011;65201;21.060;105.826;2023-04-07T22:47:20;32.88;;;22.45;;
76379;SDS011;65201;21.060;105.826;2023-04-07T22:49:49;31.15;;;22.58;;
76379;SDS011;65201;21.060;105.826;2023-04-07T22:52:15;34.25;;;23.13;;
76379;SDS011;65201;21.060;105.826;2023-04-07T22:54:41;31.63;;;23.73;;
76379;SDS011;65201;21.060;105.826;2023-04-07T22:57:08;33.05;;;22.75;;
76379;SDS011;65201;21.060;105.826;2023-04-07T22:59:34;32.22;;;22.92;;
76379;SDS011;65201;21.060;105.826;2023-04-07T23:02:00;32.88;;;23.65;;
76379;SDS011;65201;21.060;105.826;2023-04-07T23:04:26;33.70;;;23.05;;
76379;SDS011;65201;21.060;105.826;2023-04-07T23:06:52;30.97;;;22.60;;
76379;SDS011;65201;21.060;105.826;2023-04-07T23:09:18;31.75;;;22.63;;
76379;SDS011;65201;21.060;105.826;2023-04-07T23:11:45;33.28;;;22.98;;
76379;SDS011;65201;21.060;105.826;2023-04-07T23:14:12;31.75;;;22.13;;
76379;SDS011;65201;21.060;105.826;2023-04-07T23:16:38;31.88;;;22.77;;
76379;SDS011;65201;21.060;105.826;2023-04-07T23:19:05;33.30;;;22.83;;
76379;SDS011;65201;21.060;105.826;2023-04-07T23:21:35;33.42;;;22.65;;
76379;SDS011;65201;21.060;105.826;2023-04-07T23:24:02;31.45;;;21.95;;
76379;SDS011;65201;21.060;105.826;2023-04-07T23:26:28;28.95;;;21.30;;
76379;SDS011;65201;21.060;105.826;2023-04-07T23:28:56;30.80;;;21.25;;
76379;SDS011;65201;21.060;105.826;2023-04-07T23:31:22;28.80;;;21.73;;
76379;SDS011;65201;21.060;105.826;2023-04-07T23:33:48;32.33;;;21.45;;
76379;SDS011;65201;21.060;105.826;2023-04-07T23:36:14;31.42;;;21.65;;
76379;SDS011;65201;21.060;105.826;2023-04-07T23:38:40;31.48;;;21.60;;
76379;SDS011;65201;21.060;105.826;2023-04-07T23:41:07;29.35;;;21.60;;
76379;SDS011;65201;21.060;105.826;2023-04-07T23:43:33;28.00;;;21.30;;
76379;SDS011;65201;21.060;105.826;2023-04-07T23:46:00;29.23;;;21.73;;
76379;SDS011;65201;21.060;105.826;2023-04-07T23:48:26;30.05;;;22.38;;
76379;SDS011;65201;21.060;105.826;2023-04-07T23:50:52;31.38;;;21.73;;
76379;SDS011;65201;21.060;105.826;2023-04-07T23:53:19;28.67;;;21.40;;
76379;SDS011;65201;21.060;105.826;2023-04-07T23:55:45;32.33;;;21.50;;
76379;SDS011;65201;21.060;105.826;2023-04-07T23:58:12;28.90;;;20.85;;
